KFSW

Details ICAO KFSW
Name FORT MADISON MUNI
Region United States
Timezone America/Chicago (UTC-5.0)
Plans Departing 6
Arriving 4
Stats Elevation 724 ft / 221 m (AMSL)
Location 40.659308° -91.325716°
Runways 2
Magnetic Variation 0.919° W
Sunrise 2018-05-25 10:41:47 UTC / 2018-05-25 05:41:47 Local
Sunset 2018-05-26 01:25:38 UTC / 2018-05-25 20:25:38 Local
Advertisement - Login to hide

Runways

ID Width Length Bearing (true) Bearing (mag) Surface Threshold Offset Overrun Length
08 100 ft / 30 m 1,199 ft / 365 m 97.52° 98.44° Grass 0 ft / 0 m 0 ft / 0 m
16 75 ft / 23 m 4,007 ft / 1,221 m 166.90° 167.82° Concrete 0 ft / 0 m 0 ft / 0 m
26 100 ft / 30 m 1,199 ft / 365 m 277.52° 278.44° Grass 0 ft / 0 m 0 ft / 0 m
34 75 ft / 23 m 4,007 ft / 1,221 m 346.90° 347.82° Concrete 0 ft / 0 m 0 ft / 0 m

Map

Weather


0- 5 10 15 20 25 30 35+ Temperature / ° C

Clouds and Precipitation
Forecast for 2018-05-25 18:00 UTC. Updated 6 hours ago

Ground ~20,000 ft ~40,000 ft Winds

METAR

KFSW 252235Z AUTO 24005KT 10SM CLR 28/19 A2979 RMK AO2

TAF

Not found

Frequencies

Recorded 120.92 MHz AWOS 3
Unicom 122.80 MHz CTAF/UNICOM
Warning: Do not use this data for real-world aviation or navigation. No guarantee of current accuracy is given.